Time;durP1;ratioP1;P1;durP2;ratioP2;P2;SDS_P1;SDS_P2;PMS_P1;PMS_P2;Temp;Humidity;BMP_temperature;BMP_pressure;BME280_temperature;BME280_humidity;BME280_pressure;Samples;Min_cycle;Max_cycle;Signal;HPM_P1;HPM_P2
2021/03/10 06:12:00;;;;;;;36.80;19.85;;;;;;;;;;5593114;23;20145;-72
2021/03/10 06:14:27;;;;;;;37.28;20.25;;;;;;;;;;5013970;28;20493;-74
2021/03/10 06:17:19;;;;;;;41.83;23.08;;;;;;;;;;4996032;28;20034;-72
2021/03/10 06:19:46;;;;;;;29.08;16.13;;;;;;;;;;5011081;28;20046;-71
2021/03/10 06:22:13;;;;;;;39.67;22.00;;;;;;;;;;5000442;28;20109;-72
2021/03/10 06:24:39;;;;;;;42.25;22.30;;;;;;;;;;5005529;28;20429;-70
2021/03/10 06:27:05;;;;;;;33.78;18.80;;;;;;;;;;5011340;28;20030;-68
2021/03/10 06:29:32;;;;;;;41.75;22.15;;;;;;;;;;5011964;28;20018;-69
2021/03/10 06:32:05;;;;;;;36.15;19.52;;;;;;;;;;4994707;28;20014;-70
2021/03/10 06:34:42;;;;;;;42.03;23.75;;;;;;;;;;5012016;28;20568;-68
2021/03/10 06:37:09;;;;;;;46.05;23.50;;;;;;;;;;5012156;28;20021;-70
2021/03/10 06:39:36;;;;;;;43.83;20.58;;;;;;;;;;5011735;28;20026;-69
2021/03/10 06:42:11;;;;;;;43.35;21.30;;;;;;;;;;4994575;28;20037;-69
2021/03/10 06:44:48;;;;;;;27.02;14.43;;;;;;;;;;5011836;28;20097;-73
2021/03/10 06:47:14;;;;;;;39.03;19.80;;;;;;;;;;5013397;28;20420;-74
2021/03/10 06:49:51;;;;;;;33.95;17.80;;;;;;;;;;5013542;28;20021;-72
2021/03/10 06:52:17;;;;;;;28.67;15.98;;;;;;;;;;5014646;28;20448;-72
2021/03/10 06:54:57;;;;;;;30.38;17.52;;;;;;;;;;5012975;28;20026;-66
2021/03/10 06:57:23;;;;;;;32.35;18.30;;;;;;;;;;5014067;28;20535;-67
2021/03/10 06:59:50;;;;;;;31.55;16.83;;;;;;;;;;5015550;28;20444;-64
2021/03/10 07:02:21;;;;;;;32.30;15.95;;;;;;;;;;5007762;28;20029;-66
2021/03/10 07:04:48;;;;;;;33.80;17.67;;;;;;;;;;5012297;28;20026;-68
2021/03/10 07:07:15;;;;;;;38.70;20.38;;;;;;;;;;5016544;28;20022;-68
2021/03/10 07:09:42;;;;;;;32.45;16.23;;;;;;;;;;5016346;28;20026;-75
2021/03/10 07:12:11;;;;;;;33.80;18.35;;;;;;;;;;5016001;28;20022;-70
2021/03/10 07:14:38;;;;;;;33.45;17.88;;;;;;;;;;5013586;28;20496;-74
2021/03/10 07:17:05;;;;;;;38.88;17.33;;;;;;;;;;4997286;28;20061;-75
2021/03/10 07:19:31;;;;;;;39.70;20.60;;;;;;;;;;5015011;28;20487;-73
2021/03/10 07:22:02;;;;;;;33.63;17.95;;;;;;;;;;4996431;28;20112;-73
2021/03/10 07:24:33;;;;;;;34.97;17.60;;;;;;;;;;4996360;28;20461;-73
2021/03/10 07:27:00;;;;;;;29.80;15.82;;;;;;;;;;5013518;28;20064;-72
2021/03/10 07:29:27;;;;;;;33.20;17.73;;;;;;;;;;4995633;28;20489;-71
2021/03/10 07:32:00;;;;;;;33.85;18.02;;;;;;;;;;5013235;28;20026;-74
2021/03/10 07:34:27;;;;;;;33.95;17.42;;;;;;;;;;5009056;28;20022;-73
2021/03/10 07:36:53;;;;;;;43.92;21.30;;;;;;;;;;4994984;28;20458;-70
2021/03/10 07:39:21;;;;;;;32.83;17.90;;;;;;;;;;4994985;28;20105;-72
2021/03/10 07:41:47;;;;;;;46.00;22.38;;;;;;;;;;5014402;28;20033;-76
2021/03/10 07:44:18;;;;;;;39.70;20.45;;;;;;;;;;5013154;28;20028;-74
2021/03/10 07:46:44;;;;;;;49.58;23.75;;;;;;;;;;4992952;28;20077;-73
2021/03/10 07:49:18;;;;;;;51.60;28.02;;;;;;;;;;4996952;28;20030;-75
2021/03/10 07:51:44;;;;;;;44.15;23.27;;;;;;;;;;5010791;28;20473;-74
2021/03/10 07:54:25;;;;;;;33.97;18.75;;;;;;;;;;4996784;28;20091;-74
2021/03/10 07:56:51;;;;;;;26.90;15.18;;;;;;;;;;5008339;28;20026;-75
2021/03/10 07:59:18;;;;;;;65.32;32.40;;;;;;;;;;4996595;28;20024;-74
2021/03/10 08:01:45;;;;;;;39.60;20.75;;;;;;;;;;5014100;28;20022;-77
2021/03/10 08:04:12;;;;;;;35.10;19.45;;;;;;;;;;5013995;28;20014;-74
2021/03/10 08:06:49;;;;;;;28.50;15.65;;;;;;;;;;5012975;28;20469;-72
2021/03/10 08:09:22;;;;;;;21.45;11.30;;;;;;;;;;5013151;28;20484;-73
2021/03/10 08:11:50;;;;;;;20.80;12.27;;;;;;;;;;5009798;28;20488;-72
2021/03/10 08:14:17;;;;;;;20.42;12.45;;;;;;;;;;4996042;28;20037;-73
2021/03/10 08:16:52;;;;;;;27.17;14.27;;;;;;;;;;5012664;28;20461;-72
2021/03/10 08:19:22;;;;;;;25.00;13.10;;;;;;;;;;4996067;28;20062;-71
2021/03/10 08:21:54;;;;;;;22.20;12.63;;;;;;;;;;5014627;28;20026;-74
2021/03/10 08:24:23;;;;;;;25.25;15.05;;;;;;;;;;5011624;28;20117;-74
2021/03/10 08:26:53;;;;;;;37.25;19.90;;;;;;;;;;5013615;28;20050;-73
2021/03/10 08:29:20;;;;;;;23.70;13.85;;;;;;;;;;4990088;28;20033;-74
2021/03/10 08:31:50;;;;;;;32.05;17.05;;;;;;;;;;4995719;28;20464;-72
2021/03/10 08:34:17;;;;;;;21.33;12.82;;;;;;;;;;5012376;28;20421;-72
2021/03/10 08:36:43;;;;;;;23.67;12.57;;;;;;;;;;5013580;28;20075;-72
2021/03/10 08:39:10;;;;;;;33.83;17.25;;;;;;;;;;5013070;28;20084;-71
2021/03/10 08:41:47;;;;;;;27.92;14.57;;;;;;;;;;5012198;28;20413;-75
2021/03/10 08:44:13;;;;;;;28.23;16.17;;;;;;;;;;5011786;28;20037;-75
2021/03/10 08:46:40;;;;;;;37.40;18.65;;;;;;;;;;5011894;28;20028;-74
2021/03/10 08:49:16;;;;;;;22.17;13.07;;;;;;;;;;5013907;28;20338;-75
2021/03/10 08:51:42;;;;;;;28.33;16.73;;;;;;;;;;5013640;28;20026;-75
2021/03/10 08:54:08;;;;;;;25.90;13.25;;;;;;;;;;5013111;28;20022;-72
2021/03/10 08:56:35;;;;;;;32.83;17.58;;;;;;;;;;5014882;28;20034;-75
2021/03/10 08:59:01;;;;;;;23.58;13.45;;;;;;;;;;5013340;28;20033;-76
2021/03/10 09:01:27;;;;;;;35.20;17.70;;;;;;;;;;5012975;28;20112;-73
2021/03/10 09:03:53;;;;;;;22.60;12.48;;;;;;;;;;5011750;28;20052;-77
2021/03/10 09:06:22;;;;;;;21.63;13.48;;;;;;;;;;4998157;28;20533;-74
2021/03/10 09:08:48;;;;;;;20.38;12.18;;;;;;;;;;4994742;28;20462;-73
2021/03/10 09:11:19;;;;;;;19.35;12.00;;;;;;;;;;5012926;28;20393;-75
2021/03/10 09:13:46;;;;;;;19.58;11.02;;;;;;;;;;5009546;28;20064;-74
2021/03/10 09:16:12;;;;;;;18.65;11.90;;;;;;;;;;5011961;28;20743;-72
2021/03/10 09:18:38;;;;;;;21.83;12.60;;;;;;;;;;5013581;28;20479;-72
2021/03/10 09:21:04;;;;;;;25.08;15.38;;;;;;;;;;4994350;28;20113;-74
2021/03/10 09:23:31;;;;;;;22.02;12.48;;;;;;;;;;4996368;28;20025;-74
2021/03/10 09:25:58;;;;;;;25.45;14.38;;;;;;;;;;5003177;28;20025;-75
2021/03/10 09:28:32;;;;;;;22.35;13.15;;;;;;;;;;5002806;28;20022;-73
2021/03/10 09:30:59;;;;;;;44.10;21.52;;;;;;;;;;5007889;28;20060;-75
2021/03/10 09:33:26;;;;;;;42.03;19.58;;;;;;;;;;4990016;28;20022;-74
2021/03/10 09:35:53;;;;;;;34.55;17.40;;;;;;;;;;5009307;28;20022;-76
2021/03/10 09:38:20;;;;;;;37.35;20.70;;;;;;;;;;5001114;28;20031;-69
2021/03/10 09:40:50;;;;;;;34.88;19.08;;;;;;;;;;5002705;28;20026;-66
2021/03/10 09:43:21;;;;;;;31.77;17.58;;;;;;;;;;5001325;28;20030;-67
2021/03/10 09:45:48;;;;;;;31.25;17.63;;;;;;;;;;5002583;28;20034;-67
2021/03/10 09:48:18;;;;;;;26.15;15.10;;;;;;;;;;4999869;28;20561;-67
2021/03/10 09:50:46;;;;;;;21.05;12.70;;;;;;;;;;4998744;28;20061;-66
2021/03/10 09:53:19;;;;;;;19.52;11.65;;;;;;;;;;5012982;28;20026;-67
2021/03/10 09:55:45;;;;;;;25.83;16.25;;;;;;;;;;5012955;28;20034;-69
2021/03/10 09:58:13;;;;;;;14.10;9.55;;;;;;;;;;5012430;28;20029;-68
2021/03/10 10:00:39;;;;;;;17.58;9.90;;;;;;;;;;4993349;28;20041;-69
2021/03/10 10:03:06;;;;;;;16.85;9.90;;;;;;;;;;4993456;28;20446;-67
2021/03/10 10:05:34;;;;;;;15.10;9.10;;;;;;;;;;4993337;28;20481;-71
2021/03/10 10:08:01;;;;;;;18.75;10.70;;;;;;;;;;4997020;28;20484;-68
2021/03/10 10:10:27;;;;;;;17.27;9.82;;;;;;;;;;5008198;28;20048;-69
2021/03/10 10:12:54;;;;;;;18.00;10.32;;;;;;;;;;5004465;28;20124;-68
2021/03/10 10:15:21;;;;;;;14.25;7.93;;;;;;;;;;5011038;28;20025;-69
2021/03/10 10:17:49;;;;;;;14.93;8.05;;;;;;;;;;4994189;28;20026;-68
2021/03/10 10:20:16;;;;;;;22.70;9.10;;;;;;;;;;5009738;28;20030;-68
2021/03/10 10:22:42;;;;;;;16.13;9.05;;;;;;;;;;5007340;28;20034;-69
2021/03/10 10:25:09;;;;;;;15.80;8.32;;;;;;;;;;5003457;28;20021;-66
2021/03/10 10:27:35;;;;;;;19.33;8.55;;;;;;;;;;4998392;28;20022;-67
2021/03/10 10:30:01;;;;;;;20.65;10.75;;;;;;;;;;5004057;28;20040;-66
2021/03/10 10:32:27;;;;;;;14.90;7.90;;;;;;;;;;5010881;28;20025;-68
2021/03/10 10:34:55;;;;;;;24.77;12.48;;;;;;;;;;5016343;28;20025;-66
2021/03/10 10:37:21;;;;;;;14.23;7.35;;;;;;;;;;5010588;28;20025;-65
2021/03/10 10:39:47;;;;;;;14.48;8.95;;;;;;;;;;4996194;28;20034;-69
2021/03/10 10:42:14;;;;;;;27.25;13.57;;;;;;;;;;4997140;28;20117;-67
2021/03/10 10:44:41;;;;;;;10.65;6.55;;;;;;;;;;4999471;28;20021;-69
2021/03/10 10:47:09;;;;;;;20.05;11.45;;;;;;;;;;5013192;28;20036;-67
2021/03/10 10:49:35;;;;;;;15.05;8.05;;;;;;;;;;5010497;28;20040;-67
2021/03/10 10:52:01;;;;;;;16.27;8.40;;;;;;;;;;5014877;28;20044;-69
2021/03/10 10:54:27;;;;;;;17.25;8.43;;;;;;;;;;5013350;28;20037;-69
2021/03/10 10:56:53;;;;;;;9.88;6.30;;;;;;;;;;5016555;28;20028;-68
2021/03/10 10:59:19;;;;;;;15.77;8.30;;;;;;;;;;5016932;28;20224;-68
2021/03/10 11:01:46;;;;;;;12.38;6.80;;;;;;;;;;5013824;28;20117;-67
2021/03/10 11:04:12;;;;;;;14.25;8.07;;;;;;;;;;5005720;28;20513;-66
2021/03/10 11:06:38;;;;;;;12.40;6.82;;;;;;;;;;5007151;28;20021;-67
2021/03/10 11:09:05;;;;;;;28.92;12.73;;;;;;;;;;4998003;28;20034;-68
2021/03/10 11:11:31;;;;;;;15.95;7.30;;;;;;;;;;4996770;28;20506;-66
2021/03/10 11:13:58;;;;;;;13.10;6.85;;;;;;;;;;4996194;28;20583;-68
2021/03/10 11:16:24;;;;;;;13.18;6.78;;;;;;;;;;4996878;28;20030;-68
2021/03/10 11:18:51;;;;;;;18.48;9.05;;;;;;;;;;4996758;28;20374;-66
2021/03/10 11:21:17;;;;;;;11.38;7.15;;;;;;;;;;4997874;28;20058;-66
2021/03/10 11:23:43;;;;;;;11.45;6.90;;;;;;;;;;4996638;28;20030;-68
2021/03/10 11:26:10;;;;;;;18.92;9.25;;;;;;;;;;5007014;28;20370;-68
2021/03/10 11:28:36;;;;;;;10.63;6.88;;;;;;;;;;5012731;28;20037;-75
2021/03/10 11:31:02;;;;;;;12.73;7.00;;;;;;;;;;5013602;28;20053;-73
2021/03/10 11:33:28;;;;;;;13.05;8.15;;;;;;;;;;4981002;28;20093;-75
2021/03/10 11:35:54;;;;;;;14.70;7.88;;;;;;;;;;4997422;28;20022;-75
2021/03/10 11:38:20;;;;;;;21.88;9.65;;;;;;;;;;5005489;28;20033;-75
2021/03/10 11:40:47;;;;;;;13.85;7.50;;;;;;;;;;5007275;28;20031;-77
2021/03/10 11:43:16;;;;;;;18.85;10.18;;;;;;;;;;5000293;28;20378;-75
2021/03/10 11:45:43;;;;;;;15.95;9.02;;;;;;;;;;5008867;28;20125;-76
2021/03/10 11:48:09;;;;;;;21.38;11.05;;;;;;;;;;4995395;28;20034;-75
2021/03/10 11:50:37;;;;;;;14.98;8.68;;;;;;;;;;4996024;28;20029;-78
2021/03/10 11:53:04;;;;;;;12.85;7.38;;;;;;;;;;5005146;28;20477;-76
2021/03/10 11:55:30;;;;;;;24.33;11.73;;;;;;;;;;4999166;28;20037;-78
2021/03/10 11:57:56;;;;;;;20.65;12.52;;;;;;;;;;4995157;28;20077;-80
2021/03/10 12:00:22;;;;;;;17.30;9.65;;;;;;;;;;5004617;28;20058;-76
2021/03/10 12:02:49;;;;;;;19.13;10.30;;;;;;;;;;5014351;28;20034;-78
2021/03/10 12:05:15;;;;;;;16.08;8.57;;;;;;;;;;5013999;28;20117;-80
2021/03/10 12:07:41;;;;;;;15.73;9.10;;;;;;;;;;5010632;28;20026;-73
2021/03/10 12:10:07;;;;;;;27.85;14.15;;;;;;;;;;5012674;28;20029;-75
2021/03/10 12:12:33;;;;;;;13.65;8.05;;;;;;;;;;5014609;28;20053;-77
2021/03/10 12:15:00;;;;;;;17.58;8.77;;;;;;;;;;5012353;28;20018;-76
2021/03/10 12:17:26;;;;;;;15.85;9.27;;;;;;;;;;5012761;28;20051;-77
2021/03/10 12:19:52;;;;;;;15.98;8.95;;;;;;;;;;5015185;28;20044;-77
2021/03/10 12:22:18;;;;;;;52.53;21.95;;;;;;;;;;5015461;28;20080;-77
2021/03/10 12:24:46;;;;;;;23.13;11.95;;;;;;;;;;5014051;28;20424;-72
2021/03/10 12:27:12;;;;;;;15.10;8.68;;;;;;;;;;5014094;28;20017;-73
2021/03/10 12:29:38;;;;;;;14.45;8.05;;;;;;;;;;5015090;28;20029;-70
2021/03/10 12:32:04;;;;;;;15.82;8.38;;;;;;;;;;5013818;28;20029;-73
2021/03/10 12:34:31;;;;;;;13.73;8.23;;;;;;;;;;5013824;28;20021;-70
2021/03/10 12:36:57;;;;;;;23.23;10.85;;;;;;;;;;5013643;28;20044;-70
2021/03/10 12:39:23;;;;;;;18.55;10.18;;;;;;;;;;5013649;28;20033;-70
2021/03/10 12:41:49;;;;;;;17.55;9.45;;;;;;;;;;5015051;28;20030;-74
2021/03/10 12:44:15;;;;;;;13.95;8.05;;;;;;;;;;5012631;28;20120;-74
2021/03/10 12:46:41;;;;;;;23.17;12.15;;;;;;;;;;5014476;28;20021;-73
2021/03/10 12:49:07;;;;;;;32.50;15.35;;;;;;;;;;5012774;28;20057;-73
2021/03/10 12:51:33;;;;;;;14.35;8.50;;;;;;;;;;5011986;28;20061;-74
2021/03/10 12:54:00;;;;;;;15.15;8.20;;;;;;;;;;5012302;28;20026;-76
2021/03/10 12:56:26;;;;;;;15.77;8.63;;;;;;;;;;5013369;28;20018;-75
2021/03/10 12:58:52;;;;;;;14.68;8.30;;;;;;;;;;5013076;28;20022;-74
2021/03/10 13:01:18;;;;;;;16.15;8.52;;;;;;;;;;5013214;28;20030;-74
2021/03/10 13:03:44;;;;;;;18.55;9.45;;;;;;;;;;5013883;28;20076;-73
2021/03/10 13:06:10;;;;;;;14.93;8.13;;;;;;;;;;5012902;28;20053;-73
2021/03/10 13:08:38;;;;;;;13.68;8.40;;;;;;;;;;5013793;28;20135;-74
2021/03/10 13:11:05;;;;;;;15.07;8.43;;;;;;;;;;5007647;28;20388;-74
2021/03/10 13:13:31;;;;;;;18.10;9.65;;;;;;;;;;5013971;28;20046;-74
2021/03/10 13:15:57;;;;;;;17.90;9.90;;;;;;;;;;5029494;28;20025;-71
2021/03/10 13:18:23;;;;;;;34.95;21.52;;;;;;;;;;5022861;28;20393;-77
2021/03/10 13:20:49;;;;;;;16.02;8.65;;;;;;;;;;5029082;28;20048;-72
2021/03/10 13:23:15;;;;;;;17.67;9.27;;;;;;;;;;5029350;28;20561;-70
2021/03/10 13:25:41;;;;;;;11.88;7.80;;;;;;;;;;5001134;28;20034;-72
2021/03/10 13:28:07;;;;;;;13.60;7.82;;;;;;;;;;4993261;28;20462;-73
2021/03/10 13:30:33;;;;;;;11.98;7.28;;;;;;;;;;4992704;28;20023;-73
2021/03/10 13:33:00;;;;;;;27.17;13.05;;;;;;;;;;4996823;28;20026;-71
2021/03/10 13:35:26;;;;;;;14.15;8.88;;;;;;;;;;4998261;28;20034;-73
2021/03/10 13:37:52;;;;;;;23.80;12.70;;;;;;;;;;5013623;28;20101;-73
2021/03/10 13:40:18;;;;;;;14.00;8.75;;;;;;;;;;5011623;28;20120;-73
2021/03/10 13:42:47;;;;;;;16.90;9.68;;;;;;;;;;5012634;28;20030;-76
2021/03/10 13:45:14;;;;;;;17.25;9.13;;;;;;;;;;5011098;28;20026;-73
2021/03/10 13:47:40;;;;;;;18.85;10.05;;;;;;;;;;5011958;28;20026;-72
2021/03/10 13:50:06;;;;;;;19.33;9.98;;;;;;;;;;5012769;28;20034;-73
2021/03/10 13:52:32;;;;;;;16.38;8.90;;;;;;;;;;5012608;28;20487;-72
2021/03/10 13:54:58;;;;;;;20.70;10.95;;;;;;;;;;5012230;28;20026;-73
2021/03/10 13:57:24;;;;;;;28.48;13.25;;;;;;;;;;5016139;28;20038;-71
2021/03/10 13:59:50;;;;;;;20.67;11.05;;;;;;;;;;5002147;28;20041;-71
2021/03/10 14:02:17;;;;;;;58.85;27.27;;;;;;;;;;4997113;28;20025;-72
2021/03/10 14:04:43;;;;;;;26.33;12.98;;;;;;;;;;5015157;28;20022;-73
2021/03/10 14:07:09;;;;;;;16.95;9.75;;;;;;;;;;4997516;28;20022;-72
2021/03/10 14:09:35;;;;;;;18.08;10.43;;;;;;;;;;4998407;28;20018;-70
2021/03/10 14:12:01;;;;;;;16.10;9.68;;;;;;;;;;5016741;28;20098;-70
2021/03/10 14:14:27;;;;;;;17.98;9.48;;;;;;;;;;5017418;28;20034;-70
2021/03/10 14:16:53;;;;;;;16.23;9.57;;;;;;;;;;5017610;28;20025;-72
2021/03/10 14:19:20;;;;;;;22.77;12.73;;;;;;;;;;5017459;28;20034;-74
2021/03/10 14:21:46;;;;;;;14.30;8.52;;;;;;;;;;5017152;28;20105;-73
2021/03/10 14:24:12;;;;;;;14.88;8.90;;;;;;;;;;5000727;28;20335;-71
2021/03/10 14:26:38;;;;;;;20.55;11.05;;;;;;;;;;4999659;28;20025;-74
2021/03/10 14:29:04;;;;;;;21.30;12.00;;;;;;;;;;4999496;28;20484;-70
2021/03/10 14:31:30;;;;;;;19.00;10.57;;;;;;;;;;5017078;28;20026;-70
2021/03/10 14:33:56;;;;;;;19.02;10.63;;;;;;;;;;4999543;28;20026;-69
2021/03/10 14:36:22;;;;;;;16.65;10.20;;;;;;;;;;4999514;28;20377;-69
2021/03/10 14:38:48;;;;;;;16.77;9.88;;;;;;;;;;4999469;28;20477;-69
2021/03/10 14:41:15;;;;;;;20.98;11.82;;;;;;;;;;5017159;28;20038;-70
2021/03/10 14:43:41;;;;;;;31.17;14.77;;;;;;;;;;4999245;28;20022;-69
2021/03/10 14:46:07;;;;;;;21.15;10.48;;;;;;;;;;5000082;28;20022;-69
2021/03/10 14:48:34;;;;;;;21.80;11.48;;;;;;;;;;4999697;28;20022;-71
2021/03/10 14:51:00;;;;;;;19.95;11.43;;;;;;;;;;5017325;28;20030;-72
2021/03/10 14:53:26;;;;;;;19.63;11.85;;;;;;;;;;5000955;28;20053;-73
2021/03/10 14:55:52;;;;;;;19.63;11.85;;;;;;;;;;5000181;28;20432;-69
2021/03/10 14:58:18;;;;;;;21.77;11.45;;;;;;;;;;5005865;28;20469;-69
2021/03/10 15:00:44;;;;;;;18.77;9.82;;;;;;;;;;5014996;28;20057;-70
2021/03/10 15:03:11;;;;;;;18.92;10.52;;;;;;;;;;5015833;28;20030;-71
2021/03/10 15:05:38;;;;;;;24.50;14.75;;;;;;;;;;5005866;28;20453;-70
2021/03/10 15:08:05;;;;;;;21.88;10.98;;;;;;;;;;5014719;28;20026;-67
2021/03/10 15:10:31;;;;;;;17.60;9.30;;;;;;;;;;5016447;28;20088;-71
2021/03/10 15:12:57;;;;;;;24.00;13.00;;;;;;;;;;5016188;28;20132;-67
2021/03/10 15:15:23;;;;;;;16.27;10.50;;;;;;;;;;5015275;28;20021;-70
2021/03/10 15:17:49;;;;;;;28.33;15.57;;;;;;;;;;5016389;28;20025;-68
2021/03/10 15:20:16;;;;;;;28.75;15.75;;;;;;;;;;5015094;28;20049;-71
2021/03/10 15:25:18;;;;;;;27.15;13.52;;;;;;;;;;4961145;22;20606;-74
2021/03/10 15:27:44;;;;;;;20.60;10.80;;;;;;;;;;4990293;28;20117;-73
2021/03/10 15:30:12;;;;;;;23.25;13.43;;;;;;;;;;4959853;28;20049;-72
2021/03/10 15:32:38;;;;;;;18.25;10.27;;;;;;;;;;4977033;28;20023;-73
2021/03/10 15:35:06;;;;;;;18.08;10.40;;;;;;;;;;4959836;28;20030;-72
2021/03/10 15:37:32;;;;;;;20.85;12.00;;;;;;;;;;4986944;28;20026;-72
2021/03/10 15:39:59;;;;;;;24.63;14.63;;;;;;;;;;4970060;28;20031;-72
2021/03/10 15:42:25;;;;;;;24.90;15.40;;;;;;;;;;4992522;28;20022;-72
2021/03/10 15:44:51;;;;;;;36.22;19.30;;;;;;;;;;4995033;28;20381;-71
2021/03/10 15:47:17;;;;;;;24.55;16.08;;;;;;;;;;4991505;28;20035;-72
2021/03/10 15:49:43;;;;;;;31.45;17.23;;;;;;;;;;4959899;28;20045;-71
2021/03/10 15:52:09;;;;;;;19.08;10.95;;;;;;;;;;4986108;28;20022;-72
2021/03/10 15:54:35;;;;;;;36.92;19.85;;;;;;;;;;4995009;28;20437;-72
2021/03/10 15:57:02;;;;;;;25.60;14.10;;;;;;;;;;4996064;28;20030;-72
2021/03/10 15:59:28;;;;;;;20.50;11.63;;;;;;;;;;4995778;28;20085;-72
2021/03/10 16:01:54;;;;;;;19.80;12.48;;;;;;;;;;4994802;28;20027;-72
2021/03/10 16:04:20;;;;;;;24.92;14.40;;;;;;;;;;4995294;28;20022;-73
2021/03/10 16:06:46;;;;;;;38.75;21.00;;;;;;;;;;4990317;28;20501;-72
2021/03/10 16:09:19;;;;;;;26.38;13.38;;;;;;;;;;5004887;28;20481;-70
2021/03/10 16:11:50;;;;;;;32.63;15.65;;;;;;;;;;4967355;28;20076;-73
2021/03/10 16:14:16;;;;;;;18.70;11.18;;;;;;;;;;5000915;28;20030;-72
2021/03/10 16:16:43;;;;;;;23.38;14.65;;;;;;;;;;4993621;28;20097;-72
2021/03/10 16:19:15;;;;;;;21.10;12.40;;;;;;;;;;4991044;28;20014;-73
2021/03/10 16:21:41;;;;;;;23.63;11.55;;;;;;;;;;4977955;28;20062;-73
2021/03/10 16:24:08;;;;;;;27.17;14.57;;;;;;;;;;4995524;28;20054;-72
2021/03/10 16:26:34;;;;;;;26.65;15.68;;;;;;;;;;4988864;28;20026;-72
2021/03/10 16:29:00;;;;;;;22.35;12.32;;;;;;;;;;5014909;28;20057;-72
2021/03/10 16:31:26;;;;;;;21.95;12.45;;;;;;;;;;4996329;28;20506;-73
2021/03/10 16:33:53;;;;;;;33.22;14.82;;;;;;;;;;4992410;28;20026;-72
2021/03/10 16:36:19;;;;;;;34.40;19.05;;;;;;;;;;4977568;28;20049;-74
2021/03/10 16:38:46;;;;;;;24.13;13.95;;;;;;;;;;4976741;28;20457;-72
2021/03/10 16:41:12;;;;;;;23.35;13.02;;;;;;;;;;4975983;28;20389;-72
2021/03/10 16:43:38;;;;;;;20.10;11.88;;;;;;;;;;4977315;28;20405;-72
2021/03/10 16:46:07;;;;;;;21.75;12.38;;;;;;;;;;4976089;28;20034;-74
2021/03/10 16:48:33;;;;;;;20.17;11.82;;;;;;;;;;4988313;28;20027;-73
2021/03/10 16:51:00;;;;;;;18.23;10.32;;;;;;;;;;4983277;28;20029;-73
2021/03/10 16:53:26;;;;;;;20.60;12.10;;;;;;;;;;4957657;28;20041;-74
2021/03/10 16:55:53;;;;;;;19.85;11.88;;;;;;;;;;4974488;28;20019;-71
2021/03/10 16:58:19;;;;;;;29.95;15.07;;;;;;;;;;4957859;28;20026;-73
2021/03/10 17:00:47;;;;;;;35.72;17.25;;;;;;;;;;4966127;28;20038;-73
2021/03/10 17:03:13;;;;;;;32.42;17.33;;;;;;;;;;4976046;28;20027;-74
2021/03/10 17:05:39;;;;;;;30.98;13.90;;;;;;;;;;4973206;28;20038;-72
2021/03/10 17:08:05;;;;;;;31.67;17.30;;;;;;;;;;4957605;28;20023;-72
2021/03/10 17:10:31;;;;;;;26.15;14.95;;;;;;;;;;4965735;28;20527;-74
2021/03/10 17:12:58;;;;;;;26.30;13.68;;;;;;;;;;4987616;28;20029;-73
2021/03/10 17:15:24;;;;;;;31.98;16.38;;;;;;;;;;4986170;28;20030;-74
2021/03/10 17:17:50;;;;;;;29.25;16.05;;;;;;;;;;4985204;28;20109;-73
2021/03/10 17:20:16;;;;;;;21.23;11.93;;;;;;;;;;4984022;28;20026;-73
2021/03/10 17:22:42;;;;;;;81.72;36.90;;;;;;;;;;4993042;28;20540;-72
2021/03/10 17:25:09;;;;;;;30.55;16.42;;;;;;;;;;4975959;28;20065;-72
2021/03/10 17:27:35;;;;;;;29.85;17.17;;;;;;;;;;4992690;28;20028;-72
2021/03/10 17:30:02;;;;;;;23.15;13.63;;;;;;;;;;4974042;28;20037;-73
2021/03/10 17:32:28;;;;;;;29.23;16.33;;;;;;;;;;4974803;28;20141;-73
2021/03/10 17:34:54;;;;;;;25.50;14.57;;;;;;;;;;4974663;28;20022;-73
2021/03/10 17:37:20;;;;;;;25.08;14.05;;;;;;;;;;4974215;28;20030;-72
2021/03/10 17:39:49;;;;;;;28.40;15.80;;;;;;;;;;4975837;28;20022;-73
2021/03/10 17:42:16;;;;;;;31.67;15.60;;;;;;;;;;4981450;28;20317;-72
2021/03/10 17:44:42;;;;;;;33.25;16.98;;;;;;;;;;4994008;28;20027;-73
2021/03/10 17:47:08;;;;;;;46.92;23.30;;;;;;;;;;4974943;28;20026;-72
2021/03/10 17:49:36;;;;;;;42.53;19.63;;;;;;;;;;4976482;28;20054;-74
2021/03/10 17:52:03;;;;;;;28.98;15.23;;;;;;;;;;4991186;28;20026;-72
2021/03/10 17:54:29;;;;;;;51.58;23.52;;;;;;;;;;4975278;28;20022;-75
2021/03/10 17:56:56;;;;;;;37.25;17.73;;;;;;;;;;4974950;28;20454;-72
2021/03/10 17:59:22;;;;;;;28.90;16.90;;;;;;;;;;4973379;28;20038;-72
2021/03/10 18:01:48;;;;;;;28.10;16.77;;;;;;;;;;4975195;28;20109;-72
2021/03/10 18:04:14;;;;;;;35.53;19.30;;;;;;;;;;4975220;28;20030;-73
2021/03/10 18:06:40;;;;;;;37.88;19.17;;;;;;;;;;5000128;28;20049;-71
2021/03/10 18:09:07;;;;;;;38.10;21.35;;;;;;;;;;5002299;28;20474;-73
2021/03/10 18:11:34;;;;;;;47.05;25.40;;;;;;;;;;4988102;28;20092;-73
2021/03/10 18:14:00;;;;;;;45.75;22.50;;;;;;;;;;4994015;28;20077;-73
2021/03/10 18:16:27;;;;;;;40.35;21.70;;;;;;;;;;4992725;28;20392;-72
2021/03/10 18:18:53;;;;;;;48.75;25.02;;;;;;;;;;4983560;28;20026;-75
2021/03/10 18:21:19;;;;;;;41.35;20.45;;;;;;;;;;4988252;28;20157;-72
2021/03/10 18:23:45;;;;;;;49.55;23.33;;;;;;;;;;4993464;28;20023;-72
2021/03/10 18:26:11;;;;;;;55.72;26.77;;;;;;;;;;4975481;28;20046;-73
2021/03/10 18:28:38;;;;;;;47.92;23.40;;;;;;;;;;4978687;28;20026;-71
2021/03/10 18:31:04;;;;;;;81.90;39.35;;;;;;;;;;4986109;28;20044;-76
2021/03/10 18:33:30;;;;;;;76.90;36.78;;;;;;;;;;4988117;28;20026;-74
2021/03/10 18:35:56;;;;;;;46.88;24.10;;;;;;;;;;4995949;28;20276;-72
2021/03/10 18:38:22;;;;;;;36.05;19.40;;;;;;;;;;4977643;28;20112;-74
2021/03/10 18:40:48;;;;;;;40.45;19.30;;;;;;;;;;4976027;28;20084;-72
2021/03/10 18:43:15;;;;;;;40.40;21.20;;;;;;;;;;4977599;28;20022;-73
2021/03/10 18:45:41;;;;;;;49.22;25.35;;;;;;;;;;4995715;28;20030;-74
2021/03/10 18:48:07;;;;;;;59.58;30.27;;;;;;;;;;4979207;28;20029;-74
2021/03/10 18:50:34;;;;;;;47.65;23.80;;;;;;;;;;4976254;28;20508;-74
2021/03/10 18:53:00;;;;;;;50.92;24.63;;;;;;;;;;4961772;28;20031;-74
2021/03/10 18:55:26;;;;;;;82.15;37.17;;;;;;;;;;4960286;28;20023;-72
2021/03/10 18:57:52;;;;;;;97.90;48.85;;;;;;;;;;4978119;28;20027;-76
2021/03/10 19:00:19;;;;;;;48.30;23.30;;;;;;;;;;4960470;28;20382;-73
2021/03/10 19:02:45;;;;;;;43.95;21.45;;;;;;;;;;4989709;28;20036;-74
2021/03/10 19:05:13;;;;;;;61.55;31.63;;;;;;;;;;4982598;28;20023;-75
2021/03/10 19:07:39;;;;;;;48.42;23.95;;;;;;;;;;4982729;28;20571;-75
2021/03/10 19:10:07;;;;;;;65.57;32.08;;;;;;;;;;4993972;28;20051;-73
2021/03/10 19:12:33;;;;;;;55.40;30.48;;;;;;;;;;5012313;28;20481;-72
2021/03/10 19:14:59;;;;;;;77.28;39.58;;;;;;;;;;4982767;28;20109;-73
2021/03/10 19:17:25;;;;;;;129.75;58.05;;;;;;;;;;4998727;28;20030;-72
2021/03/10 19:19:52;;;;;;;60.03;30.30;;;;;;;;;;4991558;28;20441;-70
2021/03/10 19:22:18;;;;;;;51.55;24.80;;;;;;;;;;4976615;28;20029;-71
2021/03/10 19:24:44;;;;;;;62.38;31.35;;;;;;;;;;4968336;28;20056;-69
2021/03/10 19:27:11;;;;;;;28.80;15.95;;;;;;;;;;4966580;28;20019;-71
2021/03/10 19:29:37;;;;;;;42.90;21.23;;;;;;;;;;4975319;28;20084;-72
2021/03/10 19:32:03;;;;;;;35.00;17.60;;;;;;;;;;4985344;28;20042;-72
2021/03/10 19:34:31;;;;;;;26.05;14.52;;;;;;;;;;4985427;28;20127;-72
2021/03/10 19:36:57;;;;;;;46.58;21.77;;;;;;;;;;4983875;28;20023;-72
2021/03/10 19:39:24;;;;;;;53.13;25.77;;;;;;;;;;4961741;28;20034;-74
2021/03/10 19:41:50;;;;;;;47.15;21.30;;;;;;;;;;4981477;28;20037;-72
2021/03/10 19:44:16;;;;;;;42.78;21.50;;;;;;;;;;4978725;28;20033;-70
2021/03/10 19:46:43;;;;;;;46.75;22.27;;;;;;;;;;4976710;28;20425;-69
2021/03/10 19:49:09;;;;;;;83.40;34.90;;;;;;;;;;4979704;28;20054;-71
2021/03/10 19:51:35;;;;;;;61.85;29.73;;;;;;;;;;4980513;28;20456;-70
2021/03/10 19:54:01;;;;;;;64.80;28.90;;;;;;;;;;4978464;28;20118;-71
2021/03/10 19:56:27;;;;;;;59.78;25.20;;;;;;;;;;4980723;28;20389;-71
2021/03/10 19:58:54;;;;;;;58.42;25.80;;;;;;;;;;4987925;28;20050;-71
2021/03/10 20:01:20;;;;;;;49.97;23.33;;;;;;;;;;5003569;28;20034;-71
2021/03/10 20:03:46;;;;;;;53.05;24.33;;;;;;;;;;4981859;28;20115;-71
2021/03/10 20:06:12;;;;;;;47.03;22.17;;;;;;;;;;4987488;28;20378;-73
2021/03/10 20:08:38;;;;;;;41.20;20.65;;;;;;;;;;4996560;28;20049;-70
2021/03/10 20:11:05;;;;;;;59.55;23.92;;;;;;;;;;4996054;28;20038;-71
2021/03/10 20:13:31;;;;;;;49.17;23.80;;;;;;;;;;4997216;28;20381;-72
2021/03/10 20:15:57;;;;;;;47.22;24.50;;;;;;;;;;4996506;28;20022;-72
2021/03/10 20:18:24;;;;;;;46.30;23.17;;;;;;;;;;4975223;28;20355;-69
2021/03/10 20:20:50;;;;;;;42.30;21.92;;;;;;;;;;4976088;28;20023;-70
2021/03/10 20:23:17;;;;;;;54.65;26.75;;;;;;;;;;4975865;28;20078;-71
2021/03/10 20:25:44;;;;;;;41.08;20.67;;;;;;;;;;4977034;28;20077;-68
2021/03/10 20:28:10;;;;;;;55.03;27.08;;;;;;;;;;4973344;28;20026;-68
2021/03/10 20:30:36;;;;;;;47.65;24.23;;;;;;;;;;4989847;28;20033;-74
2021/03/10 20:33:03;;;;;;;39.65;20.88;;;;;;;;;;4983378;28;20570;-69